sensor_id;sensor_type;location;lat;lon;timestamp;P1;durP1;ratioP1;P2;durP2;ratioP2
12770;SDS011;6449;47.666;9.160;2024-03-07T00:00:29;11.93;;;8.17;;
12770;SDS011;6449;47.666;9.160;2024-03-07T00:05:26;10.97;;;7.43;;
12770;SDS011;6449;47.666;9.160;2024-03-07T00:10:21;11.70;;;7.90;;
12770;SDS011;6449;47.666;9.160;2024-03-07T00:15:15;11.00;;;7.37;;
12770;SDS011;6449;47.666;9.160;2024-03-07T00:20:09;11.17;;;7.47;;
12770;SDS011;6449;47.666;9.160;2024-03-07T00:25:08;13.07;;;7.57;;
12770;SDS011;6449;47.666;9.160;2024-03-07T00:30:05;13.27;;;8.43;;
12770;SDS011;6449;47.666;9.160;2024-03-07T00:35:00;12.13;;;8.30;;
12770;SDS011;6449;47.666;9.160;2024-03-07T00:39:55;12.93;;;7.93;;
12770;SDS011;6449;47.666;9.160;2024-03-07T00:44:48;11.70;;;7.87;;
12770;SDS011;6449;47.666;9.160;2024-03-07T00:49:45;12.47;;;7.83;;
12770;SDS011;6449;47.666;9.160;2024-03-07T00:54:39;12.33;;;8.57;;
12770;SDS011;6449;47.666;9.160;2024-03-07T00:59:32;11.30;;;7.97;;
12770;SDS011;6449;47.666;9.160;2024-03-07T01:04:26;11.70;;;7.67;;
12770;SDS011;6449;47.666;9.160;2024-03-07T01:09:23;13.03;;;8.40;;
12770;SDS011;6449;47.666;9.160;2024-03-07T01:14:17;13.23;;;8.63;;
12770;SDS011;6449;47.666;9.160;2024-03-07T01:19:10;11.50;;;7.90;;
12770;SDS011;6449;47.666;9.160;2024-03-07T01:24:04;12.33;;;8.13;;
12770;SDS011;6449;47.666;9.160;2024-03-07T01:29:00;13.60;;;8.43;;
12770;SDS011;6449;47.666;9.160;2024-03-07T01:33:58;14.43;;;9.00;;
12770;SDS011;6449;47.666;9.160;2024-03-07T01:38:55;13.63;;;9.37;;
12770;SDS011;6449;47.666;9.160;2024-03-07T01:43:48;13.70;;;9.23;;
12770;SDS011;6449;47.666;9.160;2024-03-07T01:48:43;13.10;;;8.77;;
12770;SDS011;6449;47.666;9.160;2024-03-07T01:53:38;13.97;;;8.83;;
12770;SDS011;6449;47.666;9.160;2024-03-07T01:58:34;11.80;;;7.87;;
12770;SDS011;6449;47.666;9.160;2024-03-07T02:03:29;13.27;;;9.10;;
12770;SDS011;6449;47.666;9.160;2024-03-07T02:08:24;14.77;;;9.07;;
12770;SDS011;6449;47.666;9.160;2024-03-07T02:13:17;12.00;;;7.83;;
12770;SDS011;6449;47.666;9.160;2024-03-07T02:18:11;12.40;;;8.80;;
12770;SDS011;6449;47.666;9.160;2024-03-07T02:23:06;12.80;;;8.53;;
12770;SDS011;6449;47.666;9.160;2024-03-07T02:28:00;12.27;;;8.53;;
12770;SDS011;6449;47.666;9.160;2024-03-07T02:32:56;12.63;;;8.50;;
12770;SDS011;6449;47.666;9.160;2024-03-07T02:37:51;11.20;;;7.93;;
12770;SDS011;6449;47.666;9.160;2024-03-07T02:42:46;11.17;;;7.60;;
12770;SDS011;6449;47.666;9.160;2024-03-07T02:47:39;10.57;;;7.57;;
12770;SDS011;6449;47.666;9.160;2024-03-07T02:52:35;11.20;;;7.57;;
12770;SDS011;6449;47.666;9.160;2024-03-07T02:57:30;10.53;;;7.63;;
12770;SDS011;6449;47.666;9.160;2024-03-07T03:02:26;11.63;;;8.57;;
12770;SDS011;6449;47.666;9.160;2024-03-07T03:07:19;10.90;;;7.53;;
12770;SDS011;6449;47.666;9.160;2024-03-07T03:12:13;10.63;;;7.17;;
12770;SDS011;6449;47.666;9.160;2024-03-07T03:17:07;10.40;;;7.53;;
12770;SDS011;6449;47.666;9.160;2024-03-07T03:22:04;10.67;;;7.17;;
12770;SDS011;6449;47.666;9.160;2024-03-07T03:27:00;11.10;;;7.27;;
12770;SDS011;6449;47.666;9.160;2024-03-07T03:31:54;11.27;;;7.73;;
12770;SDS011;6449;47.666;9.160;2024-03-07T03:36:48;14.03;;;8.33;;
12770;SDS011;6449;47.666;9.160;2024-03-07T03:41:42;13.43;;;8.60;;
12770;SDS011;6449;47.666;9.160;2024-03-07T03:46:36;12.23;;;8.00;;
12770;SDS011;6449;47.666;9.160;2024-03-07T03:51:29;11.80;;;8.40;;
12770;SDS011;6449;47.666;9.160;2024-03-07T03:56:23;9.70;;;6.63;;
12770;SDS011;6449;47.666;9.160;2024-03-07T04:01:19;11.17;;;7.87;;
12770;SDS011;6449;47.666;9.160;2024-03-07T04:06:13;10.80;;;7.43;;
12770;SDS011;6449;47.666;9.160;2024-03-07T04:11:06;9.27;;;7.23;;
12770;SDS011;6449;47.666;9.160;2024-03-07T04:16:01;14.57;;;10.63;;
12770;SDS011;6449;47.666;9.160;2024-03-07T04:20:57;11.50;;;7.43;;
12770;SDS011;6449;47.666;9.160;2024-03-07T04:25:51;12.37;;;8.83;;
12770;SDS011;6449;47.666;9.160;2024-03-07T04:30:45;11.13;;;7.60;;
12770;SDS011;6449;47.666;9.160;2024-03-07T04:35:40;13.73;;;7.77;;
12770;SDS011;6449;47.666;9.160;2024-03-07T04:40:35;32.63;;;18.87;;
12770;SDS011;6449;47.666;9.160;2024-03-07T04:45:28;14.90;;;10.77;;
12770;SDS011;6449;47.666;9.160;2024-03-07T04:50:22;14.17;;;9.13;;
12770;SDS011;6449;47.666;9.160;2024-03-07T04:55:16;14.37;;;9.10;;
12770;SDS011;6449;47.666;9.160;2024-03-07T05:00:12;14.40;;;9.27;;
12770;SDS011;6449;47.666;9.160;2024-03-07T05:05:12;13.80;;;8.97;;
12770;SDS011;6449;47.666;9.160;2024-03-07T05:10:06;13.13;;;9.23;;
12770;SDS011;6449;47.666;9.160;2024-03-07T05:15:02;16.10;;;9.23;;
12770;SDS011;6449;47.666;9.160;2024-03-07T05:19:58;15.03;;;9.53;;
12770;SDS011;6449;47.666;9.160;2024-03-07T05:24:51;15.00;;;9.63;;
12770;SDS011;6449;47.666;9.160;2024-03-07T05:29:45;14.47;;;9.57;;
12770;SDS011;6449;47.666;9.160;2024-03-07T05:34:38;14.03;;;8.83;;
12770;SDS011;6449;47.666;9.160;2024-03-07T05:39:33;13.67;;;8.67;;
12770;SDS011;6449;47.666;9.160;2024-03-07T05:44:27;13.73;;;8.40;;
12770;SDS011;6449;47.666;9.160;2024-03-07T05:49:21;11.47;;;7.43;;
12770;SDS011;6449;47.666;9.160;2024-03-07T05:54:14;13.40;;;8.00;;
12770;SDS011;6449;47.666;9.160;2024-03-07T05:59:10;15.33;;;9.30;;
12770;SDS011;6449;47.666;9.160;2024-03-07T06:04:06;15.63;;;8.87;;
12770;SDS011;6449;47.666;9.160;2024-03-07T06:09:02;17.53;;;11.23;;
12770;SDS011;6449;47.666;9.160;2024-03-07T06:13:59;17.40;;;9.60;;
12770;SDS011;6449;47.666;9.160;2024-03-07T06:18:55;17.53;;;9.37;;
12770;SDS011;6449;47.666;9.160;2024-03-07T06:23:48;20.20;;;10.77;;
12770;SDS011;6449;47.666;9.160;2024-03-07T06:28:50;20.50;;;10.53;;
12770;SDS011;6449;47.666;9.160;2024-03-07T06:33:44;20.50;;;10.77;;
12770;SDS011;6449;47.666;9.160;2024-03-07T06:38:38;23.13;;;12.00;;
12770;SDS011;6449;47.666;9.160;2024-03-07T06:43:32;22.33;;;11.27;;
12770;SDS011;6449;47.666;9.160;2024-03-07T06:48:25;20.40;;;11.47;;
12770;SDS011;6449;47.666;9.160;2024-03-07T06:53:21;24.77;;;11.13;;
12770;SDS011;6449;47.666;9.160;2024-03-07T06:58:19;20.90;;;10.87;;
12770;SDS011;6449;47.666;9.160;2024-03-07T07:03:12;22.17;;;10.50;;
12770;SDS011;6449;47.666;9.160;2024-03-07T07:08:06;22.23;;;11.13;;
12770;SDS011;6449;47.666;9.160;2024-03-07T07:13:00;24.83;;;11.20;;
12770;SDS011;6449;47.666;9.160;2024-03-07T07:17:57;23.27;;;11.27;;
12770;SDS011;6449;47.666;9.160;2024-03-07T07:22:54;22.93;;;12.17;;
12770;SDS011;6449;47.666;9.160;2024-03-07T07:27:49;27.17;;;12.10;;
12770;SDS011;6449;47.666;9.160;2024-03-07T07:32:44;21.43;;;11.20;;
12770;SDS011;6449;47.666;9.160;2024-03-07T07:37:40;23.23;;;11.87;;
12770;SDS011;6449;47.666;9.160;2024-03-07T07:42:35;26.23;;;13.10;;
12770;SDS011;6449;47.666;9.160;2024-03-07T07:47:30;26.43;;;13.30;;
12770;SDS011;6449;47.666;9.160;2024-03-07T07:52:27;25.77;;;13.67;;
12770;SDS011;6449;47.666;9.160;2024-03-07T07:57:25;28.97;;;13.50;;
12770;SDS011;6449;47.666;9.160;2024-03-07T08:02:20;32.33;;;15.47;;
12770;SDS011;6449;47.666;9.160;2024-03-07T08:07:14;29.43;;;14.60;;
12770;SDS011;6449;47.666;9.160;2024-03-07T08:12:09;26.77;;;13.23;;
12770;SDS011;6449;47.666;9.160;2024-03-07T08:17:05;29.90;;;14.83;;
12770;SDS011;6449;47.666;9.160;2024-03-07T08:21:59;27.87;;;14.27;;
12770;SDS011;6449;47.666;9.160;2024-03-07T08:26:53;28.83;;;14.40;;
12770;SDS011;6449;47.666;9.160;2024-03-07T08:31:47;26.13;;;13.73;;
12770;SDS011;6449;47.666;9.160;2024-03-07T08:36:44;26.83;;;14.23;;
12770;SDS011;6449;47.666;9.160;2024-03-07T08:41:38;24.13;;;12.63;;
12770;SDS011;6449;47.666;9.160;2024-03-07T08:46:33;24.50;;;13.47;;
12770;SDS011;6449;47.666;9.160;2024-03-07T08:51:26;22.50;;;12.37;;
12770;SDS011;6449;47.666;9.160;2024-03-07T08:56:23;22.33;;;12.20;;
12770;SDS011;6449;47.666;9.160;2024-03-07T09:01:17;19.87;;;11.53;;
12770;SDS011;6449;47.666;9.160;2024-03-07T09:06:11;20.87;;;12.40;;
12770;SDS011;6449;47.666;9.160;2024-03-07T09:11:07;22.90;;;11.97;;
12770;SDS011;6449;47.666;9.160;2024-03-07T09:16:04;21.17;;;11.97;;
12770;SDS011;6449;47.666;9.160;2024-03-07T09:20:58;22.20;;;12.87;;
12770;SDS011;6449;47.666;9.160;2024-03-07T09:26:04;22.17;;;11.73;;
12770;SDS011;6449;47.666;9.160;2024-03-07T09:30:58;22.93;;;12.77;;
12770;SDS011;6449;47.666;9.160;2024-03-07T09:35:53;20.03;;;11.13;;
12770;SDS011;6449;47.666;9.160;2024-03-07T09:40:46;21.73;;;11.70;;
12770;SDS011;6449;47.666;9.160;2024-03-07T09:45:40;20.97;;;11.07;;
12770;SDS011;6449;47.666;9.160;2024-03-07T09:50:39;20.23;;;11.33;;
12770;SDS011;6449;47.666;9.160;2024-03-07T09:55:38;23.50;;;13.13;;
12770;SDS011;6449;47.666;9.160;2024-03-07T10:00:31;21.33;;;12.50;;
12770;SDS011;6449;47.666;9.160;2024-03-07T10:05:29;22.80;;;13.00;;
12770;SDS011;6449;47.666;9.160;2024-03-07T10:10:24;25.17;;;12.87;;
12770;SDS011;6449;47.666;9.160;2024-03-07T10:15:19;20.00;;;11.00;;
12770;SDS011;6449;47.666;9.160;2024-03-07T10:20:14;22.47;;;11.87;;
12770;SDS011;6449;47.666;9.160;2024-03-07T10:25:16;23.97;;;12.53;;
12770;SDS011;6449;47.666;9.160;2024-03-07T10:30:12;24.93;;;12.80;;
12770;SDS011;6449;47.666;9.160;2024-03-07T10:35:14;23.37;;;11.90;;
12770;SDS011;6449;47.666;9.160;2024-03-07T10:40:14;23.03;;;12.57;;
12770;SDS011;6449;47.666;9.160;2024-03-07T10:45:09;23.80;;;13.83;;
12770;SDS011;6449;47.666;9.160;2024-03-07T10:50:04;24.03;;;12.73;;
12770;SDS011;6449;47.666;9.160;2024-03-07T10:55:12;23.87;;;13.10;;
12770;SDS011;6449;47.666;9.160;2024-03-07T11:00:15;25.33;;;14.13;;
12770;SDS011;6449;47.666;9.160;2024-03-07T11:05:30;25.57;;;13.00;;
12770;SDS011;6449;47.666;9.160;2024-03-07T11:10:24;22.17;;;12.87;;
12770;SDS011;6449;47.666;9.160;2024-03-07T11:15:17;23.00;;;12.77;;
12770;SDS011;6449;47.666;9.160;2024-03-07T11:20:19;20.00;;;11.70;;
12770;SDS011;6449;47.666;9.160;2024-03-07T11:25:18;21.27;;;11.27;;
12770;SDS011;6449;47.666;9.160;2024-03-07T11:30:13;21.30;;;12.53;;
12770;SDS011;6449;47.666;9.160;2024-03-07T11:35:11;22.53;;;11.97;;
12770;SDS011;6449;47.666;9.160;2024-03-07T11:40:07;18.47;;;10.67;;
12770;SDS011;6449;47.666;9.160;2024-03-07T11:45:11;26.13;;;12.40;;
12770;SDS011;6449;47.666;9.160;2024-03-07T11:50:16;18.43;;;11.30;;
12770;SDS011;6449;47.666;9.160;2024-03-07T11:55:11;23.80;;;12.90;;
12770;SDS011;6449;47.666;9.160;2024-03-07T12:00:07;21.70;;;12.07;;
12770;SDS011;6449;47.666;9.160;2024-03-07T12:05:06;21.27;;;12.13;;
12770;SDS011;6449;47.666;9.160;2024-03-07T12:10:00;24.17;;;13.57;;
12770;SDS011;6449;47.666;9.160;2024-03-07T12:14:58;20.30;;;11.10;;
12770;SDS011;6449;47.666;9.160;2024-03-07T12:19:55;19.53;;;10.80;;
12770;SDS011;6449;47.666;9.160;2024-03-07T12:24:59;20.80;;;10.70;;
12770;SDS011;6449;47.666;9.160;2024-03-07T12:29:54;18.97;;;10.50;;
12770;SDS011;6449;47.666;9.160;2024-03-07T12:34:48;20.57;;;11.43;;
12770;SDS011;6449;47.666;9.160;2024-03-07T12:39:45;19.20;;;10.80;;
12770;SDS011;6449;47.666;9.160;2024-03-07T12:44:40;20.20;;;12.13;;
12770;SDS011;6449;47.666;9.160;2024-03-07T12:49:37;21.30;;;12.20;;
12770;SDS011;6449;47.666;9.160;2024-03-07T12:54:31;19.63;;;12.33;;
12770;SDS011;6449;47.666;9.160;2024-03-07T12:59:25;22.63;;;12.30;;
12770;SDS011;6449;47.666;9.160;2024-03-07T13:04:19;21.03;;;11.80;;
12770;SDS011;6449;47.666;9.160;2024-03-07T13:09:16;25.13;;;14.07;;
12770;SDS011;6449;47.666;9.160;2024-03-07T13:14:18;25.83;;;13.73;;
12770;SDS011;6449;47.666;9.160;2024-03-07T13:19:15;23.13;;;13.60;;
12770;SDS011;6449;47.666;9.160;2024-03-07T13:24:12;22.67;;;13.63;;
12770;SDS011;6449;47.666;9.160;2024-03-07T13:29:05;26.60;;;14.10;;
12770;SDS011;6449;47.666;9.160;2024-03-07T13:33:59;24.43;;;13.70;;
12770;SDS011;6449;47.666;9.160;2024-03-07T13:38:55;23.80;;;14.03;;
12770;SDS011;6449;47.666;9.160;2024-03-07T13:43:49;25.63;;;14.43;;
12770;SDS011;6449;47.666;9.160;2024-03-07T13:48:44;27.60;;;14.43;;
12770;SDS011;6449;47.666;9.160;2024-03-07T13:53:38;27.03;;;15.03;;
12770;SDS011;6449;47.666;9.160;2024-03-07T13:58:45;25.43;;;15.13;;
12770;SDS011;6449;47.666;9.160;2024-03-07T14:04:34;27.43;;;15.03;;
12770;SDS011;6449;47.666;9.160;2024-03-07T14:16:09;28.93;;;16.30;;
12770;SDS011;6449;47.666;9.160;2024-03-07T14:26:59;25.87;;;15.67;;
12770;SDS011;6449;47.666;9.160;2024-03-07T14:32:22;24.83;;;15.03;;
12770;SDS011;6449;47.666;9.160;2024-03-07T14:37:19;30.77;;;15.63;;
12770;SDS011;6449;47.666;9.160;2024-03-07T14:42:20;30.60;;;15.63;;
12770;SDS011;6449;47.666;9.160;2024-03-07T14:47:14;27.30;;;15.73;;
12770;SDS011;6449;47.666;9.160;2024-03-07T14:52:14;29.00;;;16.27;;
12770;SDS011;6449;47.666;9.160;2024-03-07T14:57:08;29.40;;;15.63;;
12770;SDS011;6449;47.666;9.160;2024-03-07T15:02:03;31.83;;;16.50;;
12770;SDS011;6449;47.666;9.160;2024-03-07T15:07:02;28.30;;;16.63;;
12770;SDS011;6449;47.666;9.160;2024-03-07T15:11:57;31.20;;;16.80;;
12770;SDS011;6449;47.666;9.160;2024-03-07T15:16:51;29.80;;;17.23;;
12770;SDS011;6449;47.666;9.160;2024-03-07T15:21:44;29.53;;;15.97;;
12770;SDS011;6449;47.666;9.160;2024-03-07T15:26:39;32.53;;;16.53;;
12770;SDS011;6449;47.666;9.160;2024-03-07T15:31:38;36.57;;;17.13;;
12770;SDS011;6449;47.666;9.160;2024-03-07T15:36:32;34.07;;;17.23;;
12770;SDS011;6449;47.666;9.160;2024-03-07T15:41:25;31.83;;;16.07;;
12770;SDS011;6449;47.666;9.160;2024-03-07T15:46:18;34.23;;;17.87;;
12770;SDS011;6449;47.666;9.160;2024-03-07T15:51:15;33.97;;;16.73;;
12770;SDS011;6449;47.666;9.160;2024-03-07T15:56:10;35.73;;;18.43;;
12770;SDS011;6449;47.666;9.160;2024-03-07T16:01:07;36.53;;;17.30;;
12770;SDS011;6449;47.666;9.160;2024-03-07T16:06:01;33.00;;;17.63;;
12770;SDS011;6449;47.666;9.160;2024-03-07T16:10:58;29.57;;;16.60;;
12770;SDS011;6449;47.666;9.160;2024-03-07T16:15:51;31.03;;;17.77;;
12770;SDS011;6449;47.666;9.160;2024-03-07T16:20:45;33.77;;;17.73;;
12770;SDS011;6449;47.666;9.160;2024-03-07T16:25:39;30.80;;;17.33;;
12770;SDS011;6449;47.666;9.160;2024-03-07T16:30:34;35.83;;;17.40;;
12770;SDS011;6449;47.666;9.160;2024-03-07T16:35:29;32.10;;;17.90;;
12770;SDS011;6449;47.666;9.160;2024-03-07T16:40:26;36.33;;;19.30;;
12770;SDS011;6449;47.666;9.160;2024-03-07T16:45:21;37.17;;;19.20;;
12770;SDS011;6449;47.666;9.160;2024-03-07T16:50:18;35.03;;;19.60;;
12770;SDS011;6449;47.666;9.160;2024-03-07T16:55:17;34.53;;;19.57;;
12770;SDS011;6449;47.666;9.160;2024-03-07T17:00:13;40.07;;;21.47;;
12770;SDS011;6449;47.666;9.160;2024-03-07T17:05:18;37.77;;;21.60;;
12770;SDS011;6449;47.666;9.160;2024-03-07T17:10:12;38.47;;;21.70;;
12770;SDS011;6449;47.666;9.160;2024-03-07T17:15:07;40.13;;;21.67;;
12770;SDS011;6449;47.666;9.160;2024-03-07T17:20:04;42.60;;;22.27;;
12770;SDS011;6449;47.666;9.160;2024-03-07T17:25:01;37.60;;;21.03;;
12770;SDS011;6449;47.666;9.160;2024-03-07T17:29:57;45.00;;;21.47;;
12770;SDS011;6449;47.666;9.160;2024-03-07T17:34:57;39.43;;;21.33;;
12770;SDS011;6449;47.666;9.160;2024-03-07T17:39:50;39.73;;;21.87;;
12770;SDS011;6449;47.666;9.160;2024-03-07T17:44:46;41.07;;;21.43;;
12770;SDS011;6449;47.666;9.160;2024-03-07T17:49:40;33.77;;;20.73;;
12770;SDS011;6449;47.666;9.160;2024-03-07T17:54:34;39.37;;;20.93;;
12770;SDS011;6449;47.666;9.160;2024-03-07T17:59:28;38.53;;;22.70;;
12770;SDS011;6449;47.666;9.160;2024-03-07T18:04:26;38.47;;;20.67;;
12770;SDS011;6449;47.666;9.160;2024-03-07T18:09:20;41.40;;;21.33;;
12770;SDS011;6449;47.666;9.160;2024-03-07T18:14:20;34.93;;;19.87;;
12770;SDS011;6449;47.666;9.160;2024-03-07T18:19:13;31.17;;;19.20;;
12770;SDS011;6449;47.666;9.160;2024-03-07T18:24:09;32.57;;;19.20;;
12770;SDS011;6449;47.666;9.160;2024-03-07T18:29:02;34.03;;;19.07;;
12770;SDS011;6449;47.666;9.160;2024-03-07T18:33:56;35.80;;;19.63;;
12770;SDS011;6449;47.666;9.160;2024-03-07T18:38:49;33.97;;;17.77;;
12770;SDS011;6449;47.666;9.160;2024-03-07T18:43:44;33.90;;;18.77;;
12770;SDS011;6449;47.666;9.160;2024-03-07T18:48:38;32.87;;;18.70;;
12770;SDS011;6449;47.666;9.160;2024-03-07T18:53:31;32.83;;;17.30;;
12770;SDS011;6449;47.666;9.160;2024-03-07T18:58:26;35.13;;;18.73;;
12770;SDS011;6449;47.666;9.160;2024-03-07T19:03:22;35.93;;;18.57;;
12770;SDS011;6449;47.666;9.160;2024-03-07T19:08:15;40.30;;;21.23;;
12770;SDS011;6449;47.666;9.160;2024-03-07T19:13:14;34.53;;;19.83;;
12770;SDS011;6449;47.666;9.160;2024-03-07T19:18:10;35.53;;;19.83;;
12770;SDS011;6449;47.666;9.160;2024-03-07T19:23:06;36.33;;;19.50;;
12770;SDS011;6449;47.666;9.160;2024-03-07T19:28:02;33.70;;;19.80;;
12770;SDS011;6449;47.666;9.160;2024-03-07T19:32:58;33.27;;;19.37;;
12770;SDS011;6449;47.666;9.160;2024-03-07T19:37:51;36.97;;;20.33;;
12770;SDS011;6449;47.666;9.160;2024-03-07T19:42:46;35.60;;;20.13;;
12770;SDS011;6449;47.666;9.160;2024-03-07T19:47:41;37.03;;;19.63;;
12770;SDS011;6449;47.666;9.160;2024-03-07T19:52:35;29.93;;;17.33;;
12770;SDS011;6449;47.666;9.160;2024-03-07T19:57:30;29.83;;;16.63;;
12770;SDS011;6449;47.666;9.160;2024-03-07T20:02:26;32.43;;;18.03;;
12770;SDS011;6449;47.666;9.160;2024-03-07T20:07:21;28.70;;;16.57;;
12770;SDS011;6449;47.666;9.160;2024-03-07T20:12:15;28.17;;;17.83;;
12770;SDS011;6449;47.666;9.160;2024-03-07T20:17:09;41.43;;;22.50;;
12770;SDS011;6449;47.666;9.160;2024-03-07T20:22:04;32.47;;;17.97;;
12770;SDS011;6449;47.666;9.160;2024-03-07T20:26:58;30.50;;;17.13;;
12770;SDS011;6449;47.666;9.160;2024-03-07T20:31:52;36.47;;;18.50;;
12770;SDS011;6449;47.666;9.160;2024-03-07T20:36:46;33.70;;;18.97;;
12770;SDS011;6449;47.666;9.160;2024-03-07T20:41:42;31.33;;;17.90;;
12770;SDS011;6449;47.666;9.160;2024-03-07T20:46:42;37.27;;;20.20;;
12770;SDS011;6449;47.666;9.160;2024-03-07T20:51:48;35.80;;;19.77;;
12770;SDS011;6449;47.666;9.160;2024-03-07T20:57:06;34.13;;;17.77;;
12770;SDS011;6449;47.666;9.160;2024-03-07T21:02:06;31.57;;;17.50;;
12770;SDS011;6449;47.666;9.160;2024-03-07T21:07:04;27.83;;;16.33;;
12770;SDS011;6449;47.666;9.160;2024-03-07T21:12:08;27.90;;;16.13;;
12770;SDS011;6449;47.666;9.160;2024-03-07T21:17:09;29.50;;;16.87;;
12770;SDS011;6449;47.666;9.160;2024-03-07T21:22:16;29.80;;;16.97;;
12770;SDS011;6449;47.666;9.160;2024-03-07T21:27:42;29.27;;;16.30;;
12770;SDS011;6449;47.666;9.160;2024-03-07T21:32:38;27.93;;;15.70;;
12770;SDS011;6449;47.666;9.160;2024-03-07T21:37:32;29.27;;;16.20;;
12770;SDS011;6449;47.666;9.160;2024-03-07T21:42:28;28.13;;;15.77;;
12770;SDS011;6449;47.666;9.160;2024-03-07T21:47:23;27.97;;;16.13;;
12770;SDS011;6449;47.666;9.160;2024-03-07T21:52:17;29.07;;;16.57;;
12770;SDS011;6449;47.666;9.160;2024-03-07T21:57:10;24.63;;;15.33;;
12770;SDS011;6449;47.666;9.160;2024-03-07T22:02:04;30.30;;;17.50;;
12770;SDS011;6449;47.666;9.160;2024-03-07T22:06:59;31.13;;;17.07;;
12770;SDS011;6449;47.666;9.160;2024-03-07T22:11:54;28.10;;;15.83;;
12770;SDS011;6449;47.666;9.160;2024-03-07T22:16:50;33.97;;;17.70;;
12770;SDS011;6449;47.666;9.160;2024-03-07T22:21:44;27.70;;;15.77;;
12770;SDS011;6449;47.666;9.160;2024-03-07T22:26:39;25.20;;;15.50;;
12770;SDS011;6449;47.666;9.160;2024-03-07T22:31:33;29.90;;;16.67;;
12770;SDS011;6449;47.666;9.160;2024-03-07T22:36:32;30.40;;;16.57;;
12770;SDS011;6449;47.666;9.160;2024-03-07T22:41:26;25.67;;;14.57;;
12770;SDS011;6449;47.666;9.160;2024-03-07T22:46:21;28.67;;;15.60;;
12770;SDS011;6449;47.666;9.160;2024-03-07T22:51:14;32.37;;;15.50;;
12770;SDS011;6449;47.666;9.160;2024-03-07T22:56:07;26.00;;;14.83;;
12770;SDS011;6449;47.666;9.160;2024-03-07T23:01:03;25.60;;;15.67;;
12770;SDS011;6449;47.666;9.160;2024-03-07T23:05:58;27.97;;;15.43;;
12770;SDS011;6449;47.666;9.160;2024-03-07T23:10:51;28.90;;;16.73;;
12770;SDS011;6449;47.666;9.160;2024-03-07T23:15:45;28.03;;;16.20;;
12770;SDS011;6449;47.666;9.160;2024-03-07T23:20:38;27.77;;;15.97;;
12770;SDS011;6449;47.666;9.160;2024-03-07T23:25:34;28.77;;;15.37;;
12770;SDS011;6449;47.666;9.160;2024-03-07T23:30:28;30.53;;;17.53;;
12770;SDS011;6449;47.666;9.160;2024-03-07T23:35:22;32.47;;;17.70;;
12770;SDS011;6449;47.666;9.160;2024-03-07T23:40:18;31.23;;;15.47;;
12770;SDS011;6449;47.666;9.160;2024-03-07T23:45:13;27.07;;;16.00;;
12770;SDS011;6449;47.666;9.160;2024-03-07T23:50:08;28.23;;;15.60;;
12770;SDS011;6449;47.666;9.160;2024-03-07T23:55:04;29.43;;;16.90;;
12770;SDS011;6449;47.666;9.160;2024-03-07T23:59:58;29.13;;;16.17;;
